createdAt,value
2022-10-29T00:01:40.066Z,1.40
2022-10-29T00:04:10.482Z,1.10
2022-10-29T00:06:43.052Z,1.35
2022-10-29T00:09:13.266Z,1.02
2022-10-29T00:11:43.165Z,1.20
2022-10-29T00:14:13.029Z,1.20
2022-10-29T00:16:42.936Z,1.23
2022-10-29T00:19:12.809Z,1.08
2022-10-29T00:21:45.250Z,1.17
2022-10-29T00:24:15.216Z,1.48
2022-10-29T00:26:45.077Z,1.77
2022-10-29T00:29:14.997Z,1.25
2022-10-29T00:31:44.923Z,1.20
2022-10-29T00:34:14.850Z,1.23
2022-10-29T00:36:47.295Z,1.50
2022-10-29T00:39:18.636Z,1.40
2022-10-29T00:41:48.472Z,1.02
2022-10-29T00:44:30.387Z,1.55
2022-10-29T00:47:05.531Z,2.15
2022-10-29T00:49:36.848Z,2.15
2022-10-29T00:52:09.881Z,1.27
2022-10-29T00:54:42.168Z,1.70
2022-10-29T00:57:15.399Z,1.50
2022-10-29T00:59:46.012Z,1.77
2022-10-29T01:02:16.059Z,1.90
2022-10-29T01:04:46.403Z,1.23
2022-10-29T01:07:18.891Z,1.83
2022-10-29T01:09:48.741Z,1.77
2022-10-29T01:12:28.809Z,1.20
2022-10-29T01:15:07.270Z,1.73
2022-10-29T01:17:44.191Z,1.80
2022-10-29T01:20:39.399Z,1.73
2022-10-29T01:23:20.793Z,2.00
2022-10-29T01:26:16.631Z,1.83
2022-10-29T01:29:01.391Z,2.30
2022-10-29T01:31:37.303Z,1.85
2022-10-29T01:34:10.431Z,1.70
2022-10-29T01:36:43.855Z,1.35
2022-10-29T01:39:22.282Z,1.83
2022-10-29T01:41:55.929Z,2.28
2022-10-29T01:44:35.103Z,2.00
2022-10-29T01:47:08.549Z,1.45
2022-10-29T01:49:42.359Z,1.75
2022-10-29T01:52:15.707Z,1.50
2022-10-29T01:54:46.780Z,1.40
2022-10-29T01:57:34.028Z,2.00
2022-10-29T02:00:07.998Z,1.92
2022-10-29T02:02:58.058Z,1.50
2022-10-29T02:05:34.556Z,1.10
2022-10-29T02:08:16.012Z,1.90
2022-10-29T02:10:50.527Z,1.60
2022-10-29T02:16:12.706Z,1.65
2022-10-29T02:18:47.089Z,2.03
2022-10-29T02:21:18.925Z,2.13
2022-10-29T02:23:49.788Z,1.90
2022-10-29T02:26:20.091Z,2.50
2022-10-29T02:28:49.957Z,1.98
2022-10-29T02:31:19.815Z,2.35
2022-10-29T02:33:52.241Z,2.47
2022-10-29T02:36:22.096Z,1.80
2022-10-29T02:38:51.912Z,2.20
2022-10-29T02:41:21.824Z,1.90
2022-10-29T02:43:51.646Z,1.85
2022-10-29T02:46:23.085Z,1.67
2022-10-29T02:48:55.545Z,2.00
2022-10-29T02:51:25.396Z,1.70
2022-10-29T02:53:55.220Z,2.13
2022-10-29T02:56:25.122Z,2.00
2022-10-29T02:58:55.192Z,2.30
2022-10-29T03:01:25.246Z,2.22
2022-10-29T03:03:57.867Z,2.58
2022-10-29T03:06:27.957Z,2.85
2022-10-29T03:08:57.808Z,3.08
2022-10-29T03:11:27.666Z,2.72
2022-10-29T03:13:57.469Z,2.90
2022-10-29T03:16:27.364Z,3.83
2022-10-29T03:18:59.805Z,2.67
2022-10-29T03:21:29.729Z,2.50
2022-10-29T03:23:59.605Z,3.00
2022-10-29T03:26:29.464Z,3.08
2022-10-29T03:28:59.581Z,3.03
2022-10-29T03:31:29.529Z,2.80
2022-10-29T03:34:02.051Z,2.88
2022-10-29T03:36:31.967Z,2.42
2022-10-29T03:39:01.853Z,2.83
2022-10-29T03:41:31.693Z,2.95
2022-10-29T03:44:01.513Z,2.75
2022-10-29T03:46:31.360Z,2.00
2022-10-29T03:49:03.828Z,2.63
2022-10-29T03:51:33.660Z,2.20
2022-10-29T03:54:03.492Z,2.00
2022-10-29T03:56:33.351Z,1.60
2022-10-29T03:59:03.238Z,1.85
2022-10-29T04:01:33.216Z,2.13
2022-10-29T04:04:05.782Z,2.00
2022-10-29T04:06:35.619Z,1.83
2022-10-29T04:09:05.456Z,2.40
2022-10-29T04:11:35.295Z,2.10
2022-10-29T04:14:05.119Z,1.80
2022-10-29T04:16:35.004Z,2.33
2022-10-29T04:19:07.714Z,2.50
2022-10-29T04:28:17.845Z,2.40
2022-10-29T04:30:07.977Z,2.63
2022-10-29T04:32:37.885Z,2.60
2022-10-29T04:35:11.072Z,2.45
2022-10-29T04:37:40.889Z,2.15
2022-10-29T04:40:12.264Z,2.03
2022-10-29T04:42:43.174Z,1.83
2022-10-29T04:45:13.306Z,2.40
2022-10-29T04:47:43.146Z,2.55
2022-10-29T04:50:15.664Z,2.28
2022-10-29T04:52:46.020Z,2.30
2022-10-29T04:55:15.879Z,2.00
2022-10-29T04:57:45.757Z,2.08
2022-10-29T05:00:18.835Z,2.10
2022-10-29T05:02:50.769Z,2.92
2022-10-29T05:05:24.395Z,2.20
2022-10-29T05:07:59.903Z,2.65
2022-10-29T05:10:32.009Z,2.40
2022-10-29T05:13:02.471Z,2.60
2022-10-29T05:15:32.967Z,2.35
2022-10-29T05:18:02.995Z,2.40
2022-10-29T05:20:35.902Z,2.70
2022-10-29T05:23:07.654Z,2.33
2022-10-29T05:25:39.872Z,2.50
2022-10-29T05:28:12.510Z,2.05
2022-10-29T05:30:44.018Z,2.50
2022-10-29T05:33:15.172Z,2.65
2022-10-29T05:35:47.909Z,1.98
2022-10-29T05:38:18.471Z,2.45
2022-10-29T05:40:48.444Z,2.58
2022-10-29T05:43:20.481Z,2.28
2022-10-29T05:45:50.323Z,2.45
2022-10-29T05:48:20.157Z,2.35
2022-10-29T05:50:52.646Z,3.58
2022-10-29T05:53:22.498Z,3.22
2022-10-29T05:55:52.328Z,3.40
2022-10-29T05:58:22.182Z,3.17
2022-10-29T06:00:52.034Z,3.05
2022-10-29T06:03:23.844Z,3.47
2022-10-29T06:05:56.354Z,3.47
2022-10-29T06:08:26.200Z,3.40
2022-10-29T06:10:56.262Z,3.38
2022-10-29T06:13:26.115Z,3.58
2022-10-29T06:16:00.054Z,2.65
2022-10-29T06:18:30.640Z,2.72
2022-10-29T06:21:03.868Z,2.92
2022-10-29T06:23:33.760Z,2.35
2022-10-29T06:26:03.765Z,2.83
2022-10-29T06:28:35.043Z,2.90
2022-10-29T06:31:05.277Z,2.35
2022-10-29T06:33:35.127Z,2.80
2022-10-29T06:36:08.678Z,2.38
2022-10-29T06:38:38.656Z,2.63
2022-10-29T06:41:09.831Z,2.50
2022-10-29T06:43:39.692Z,3.00
2022-10-29T06:46:09.707Z,3.00
2022-10-29T06:48:39.578Z,3.70
2022-10-29T06:51:12.140Z,7.78
2022-10-29T06:53:42.075Z,3.17
2022-10-29T06:56:11.926Z,3.45
2022-10-29T06:58:41.812Z,2.80
2022-10-29T07:01:11.675Z,2.50
2022-10-29T07:03:41.555Z,2.88
2022-10-29T07:06:16.779Z,3.33
2022-10-29T07:08:46.632Z,7.05
2022-10-29T07:11:16.527Z,2.70
2022-10-29T07:13:46.461Z,4.13
2022-10-29T07:16:16.273Z,5.35
2022-10-29T07:18:46.110Z,3.47
2022-10-29T07:21:18.572Z,6.90
2022-10-29T07:23:48.443Z,4.15
2022-10-29T07:26:18.318Z,3.22
2022-10-29T07:28:48.167Z,2.67
2022-10-29T07:31:18.008Z,3.50
2022-10-29T07:33:47.852Z,2.50
2022-10-29T07:36:20.274Z,2.72
2022-10-29T07:38:50.525Z,2.28
2022-10-29T07:41:20.337Z,3.08
2022-10-29T07:43:50.675Z,3.00
2022-10-29T07:46:20.485Z,1.77
2022-10-29T07:48:50.309Z,1.88
2022-10-29T07:51:22.845Z,1.90
2022-10-29T07:53:52.687Z,1.98
2022-10-29T07:56:22.523Z,2.20
2022-10-29T07:58:52.427Z,2.10
2022-10-29T08:01:22.367Z,2.78
2022-10-29T08:03:53.079Z,2.60
2022-10-29T08:06:25.547Z,2.67
2022-10-29T08:08:56.239Z,2.15
2022-10-29T08:11:26.064Z,2.00
2022-10-29T08:13:55.903Z,2.10
2022-10-29T08:16:25.755Z,1.98
2022-10-29T08:18:55.581Z,1.98
2022-10-29T08:21:28.110Z,2.08
2022-10-29T08:23:57.969Z,1.92
2022-10-29T08:26:27.888Z,2.33
2022-10-29T08:28:57.707Z,2.25
2022-10-29T08:31:27.652Z,1.77
2022-10-29T08:33:57.473Z,1.80
2022-10-29T08:36:29.949Z,2.17
2022-10-29T08:38:59.828Z,1.65
2022-10-29T08:41:38.796Z,1.92
2022-10-29T08:47:08.746Z,1.73
2022-10-29T08:49:44.693Z,1.92
2022-10-29T08:52:20.472Z,1.67
2022-10-29T08:54:53.348Z,2.15
2022-10-29T08:57:25.672Z,2.17
2022-10-29T09:02:57.501Z,2.45
2022-10-29T09:05:30.231Z,2.38
2022-10-29T09:08:12.721Z,2.00
2022-10-29T09:10:45.035Z,2.45
2022-10-29T09:13:31.033Z,2.60
2022-10-29T09:16:09.054Z,2.20
2022-10-29T09:18:49.316Z,2.35
2022-10-29T09:21:27.725Z,1.92
2022-10-29T09:24:08.986Z,2.20
2022-10-29T09:26:46.399Z,1.90
2022-10-29T09:29:44.503Z,2.17
2022-10-29T09:32:18.093Z,1.77
2022-10-29T09:34:50.576Z,1.92
2022-10-29T09:37:23.393Z,2.00
2022-10-29T09:39:57.138Z,2.00
2022-10-29T09:42:35.864Z,2.40
2022-10-29T09:45:09.578Z,2.63
2022-10-29T09:47:45.152Z,2.50
2022-10-29T09:50:20.237Z,2.30
2022-10-29T09:52:51.536Z,2.30
2022-10-29T09:55:26.719Z,2.50
2022-10-29T09:57:58.040Z,2.28
2022-10-29T10:00:30.042Z,2.22
2022-10-29T10:03:04.662Z,2.20
2022-10-29T10:05:35.880Z,2.35
2022-10-29T10:08:11.448Z,2.35
2022-10-29T10:10:54.549Z,2.53
2022-10-29T10:13:27.640Z,2.30
2022-10-29T10:15:59.579Z,2.13
2022-10-29T10:18:30.730Z,2.47
2022-10-29T10:21:09.260Z,2.10
2022-10-29T10:23:49.466Z,2.50
2022-10-29T10:26:43.205Z,2.78
2022-10-29T10:29:16.145Z,2.85
2022-10-29T10:31:47.310Z,4.43
2022-10-29T10:34:19.672Z,3.13
2022-10-29T10:36:53.253Z,5.65
2022-10-29T10:39:27.138Z,2.60
2022-10-29T10:42:01.261Z,5.05
2022-10-29T10:44:31.545Z,2.63
2022-10-29T10:47:03.809Z,12.65
2022-10-29T10:49:36.242Z,8.05
2022-10-29T10:52:08.751Z,2.85
2022-10-29T10:54:42.221Z,2.65
2022-10-29T10:57:25.143Z,2.75
2022-10-29T11:00:00.938Z,3.22
2022-10-29T11:02:38.199Z,3.10
2022-10-29T11:05:15.295Z,3.65
2022-10-29T11:07:49.184Z,7.78
2022-10-29T11:10:20.748Z,2.67
2022-10-29T11:12:55.485Z,3.03
2022-10-29T11:15:36.685Z,2.40
2022-10-29T11:18:14.204Z,2.33
2022-10-29T11:20:48.899Z,5.22
2022-10-29T11:23:30.697Z,4.30
2022-10-29T11:26:08.055Z,2.42
2022-10-29T11:28:42.403Z,2.58
2022-10-29T11:31:17.599Z,2.30
2022-10-29T11:33:54.003Z,3.10
2022-10-29T11:36:26.036Z,3.45
2022-10-29T11:38:59.693Z,3.97
2022-10-29T11:41:37.117Z,20.70
2022-10-29T11:44:12.707Z,5.28
2022-10-29T11:46:51.801Z,3.53
2022-10-29T11:49:39.071Z,3.47
2022-10-29T11:52:12.329Z,2.55
2022-10-29T11:54:52.497Z,6.13
2022-10-29T11:57:27.267Z,5.55
2022-10-29T12:00:10.946Z,6.07
2022-10-29T12:03:07.401Z,2.75
2022-10-29T12:05:43.259Z,4.50
2022-10-29T12:08:23.765Z,3.03
2022-10-29T12:10:58.031Z,3.03
2022-10-29T12:13:40.068Z,3.58
2022-10-29T12:16:19.048Z,3.72
2022-10-29T12:21:26.127Z,6.68
2022-10-29T12:24:04.004Z,4.88
2022-10-29T12:26:40.513Z,4.88
2022-10-29T12:29:16.582Z,7.80
2022-10-29T12:31:56.100Z,11.77
2022-10-29T12:34:32.371Z,6.80
2022-10-29T12:37:10.627Z,12.20
2022-10-29T12:39:43.599Z,7.32
2022-10-29T12:42:19.719Z,7.90
2022-10-29T12:44:54.456Z,6.03
2022-10-29T12:47:38.498Z,8.50
2022-10-29T12:50:17.730Z,5.53
2022-10-29T12:52:49.958Z,4.95
2022-10-29T12:55:20.333Z,5.05
2022-10-29T12:57:50.208Z,4.05
2022-10-29T13:00:35.915Z,6.63
2022-10-29T13:03:10.170Z,5.20
2022-10-29T13:05:42.679Z,5.35
2022-10-29T13:08:30.051Z,5.53
2022-10-29T13:11:00.501Z,7.13
2022-10-29T13:13:41.628Z,4.07
2022-10-29T13:16:17.380Z,6.72
2022-10-29T13:19:07.204Z,4.00
2022-10-29T13:22:02.527Z,5.32
2022-10-29T13:24:33.079Z,5.22
2022-10-29T13:27:09.812Z,3.55
2022-10-29T13:29:43.912Z,4.63
2022-10-29T13:32:38.213Z,3.67
2022-10-29T13:35:45.853Z,3.90
2022-10-29T13:38:17.161Z,2.90
2022-10-29T13:41:11.969Z,3.20
2022-10-29T13:43:42.824Z,2.88
2022-10-29T13:46:29.491Z,3.03
2022-10-29T13:49:00.538Z,8.98
2022-10-29T13:51:46.949Z,3.28
2022-10-29T13:54:24.413Z,3.03
2022-10-29T13:56:57.548Z,2.45
2022-10-29T13:59:33.976Z,3.28
2022-10-29T14:02:22.211Z,2.88
2022-10-29T14:04:54.967Z,2.70
2022-10-29T14:07:33.232Z,2.88
2022-10-29T14:10:06.447Z,2.95
2022-10-29T14:12:38.385Z,3.10
2022-10-29T14:15:14.953Z,3.42
2022-10-29T14:17:44.837Z,3.75
2022-10-29T14:20:29.386Z,3.60
2022-10-29T14:23:10.526Z,3.70
2022-10-29T14:25:40.730Z,3.35
2022-10-29T14:28:27.368Z,4.85
2022-10-29T14:31:05.880Z,4.57
2022-10-29T14:33:37.487Z,3.70
2022-10-29T14:36:12.047Z,4.90
2022-10-29T14:38:47.084Z,3.25
2022-10-29T14:41:18.349Z,3.55
2022-10-29T14:43:54.369Z,3.10
2022-10-29T14:46:27.126Z,3.40
2022-10-29T14:49:03.637Z,5.55
2022-10-29T14:51:40.991Z,3.95
2022-10-29T14:54:20.275Z,3.42
2022-10-29T14:56:51.792Z,2.63
2022-10-29T14:59:26.457Z,3.00
2022-10-29T15:02:17.192Z,3.10
2022-10-29T15:04:52.591Z,3.20
2022-10-29T15:07:34.291Z,5.47
2022-10-29T15:10:22.629Z,16.50
2022-10-29T15:12:53.400Z,24.85
2022-10-29T15:15:28.700Z,30.50
2022-10-29T15:18:04.360Z,10.55
2022-10-29T15:20:37.907Z,9.02
2022-10-29T15:23:08.026Z,18.48
2022-10-29T15:25:42.216Z,20.10
2022-10-29T15:28:12.932Z,10.20
2022-10-29T15:30:43.003Z,13.02
2022-10-29T15:33:19.865Z,12.50
2022-10-29T15:35:54.389Z,23.92
2022-10-29T15:39:09.220Z,23.30
2022-10-29T15:41:47.961Z,46.80
2022-10-29T15:44:35.507Z,32.45
2022-10-29T15:47:12.641Z,28.35
2022-10-29T15:49:42.501Z,21.83
2022-10-29T15:52:12.930Z,19.05
2022-10-29T15:54:42.781Z,20.38
2022-10-29T15:57:16.628Z,12.60
2022-10-29T15:59:46.701Z,11.82
2022-10-29T16:02:18.194Z,14.70
2022-10-29T16:04:48.175Z,12.82
2022-10-29T16:07:20.100Z,6.47
2022-10-29T16:09:52.408Z,5.18
2022-10-29T16:12:24.917Z,3.90
2022-10-29T16:14:54.821Z,4.25
2022-10-29T16:17:24.669Z,3.55
2022-10-29T16:19:54.529Z,3.42
2022-10-29T16:22:30.330Z,3.17
2022-10-29T16:25:00.241Z,3.20
2022-10-29T16:27:32.695Z,3.35
2022-10-29T16:30:02.549Z,3.38
2022-10-29T16:32:32.369Z,2.60
2022-10-29T16:35:02.212Z,2.95
2022-10-29T16:37:32.037Z,3.28
2022-10-29T16:40:01.890Z,3.35
2022-10-29T16:42:37.359Z,3.03
2022-10-29T16:45:08.637Z,3.22
2022-10-29T16:47:38.620Z,4.20
2022-10-29T16:50:09.435Z,7.05
2022-10-29T16:52:39.285Z,4.30
2022-10-29T16:55:10.244Z,3.65
2022-10-29T16:57:42.865Z,5.15
2022-10-29T17:00:13.867Z,5.90
2022-10-29T17:02:44.750Z,6.60
2022-10-29T17:05:14.654Z,5.05
2022-10-29T17:07:44.729Z,41.47
2022-10-29T17:10:14.593Z,13.88
2022-10-29T17:12:47.028Z,4.82
2022-10-29T17:15:17.360Z,4.55
2022-10-29T17:17:47.179Z,3.33
2022-10-29T17:20:17.050Z,3.40
2022-10-29T17:22:46.910Z,8.02
2022-10-29T17:25:16.777Z,7.13
2022-10-29T17:27:49.288Z,7.57
2022-10-29T17:30:19.332Z,6.53
2022-10-29T17:32:49.173Z,9.73
2022-10-29T17:35:19.161Z,15.38
2022-10-29T17:37:48.988Z,14.40
2022-10-29T17:40:19.035Z,9.55
2022-10-29T17:42:51.486Z,9.98
2022-10-29T17:45:22.802Z,7.88
2022-10-29T17:47:57.411Z,4.20
2022-10-29T17:50:28.829Z,3.60
2022-10-29T17:52:59.922Z,3.30
2022-10-29T17:55:29.834Z,3.42
2022-10-29T17:58:02.298Z,3.05
2022-10-29T18:00:32.192Z,4.65
2022-10-29T18:03:02.031Z,3.63
2022-10-29T18:05:33.540Z,3.67
2022-10-29T18:08:03.411Z,7.05
2022-10-29T18:10:34.417Z,11.75
2022-10-29T18:13:06.864Z,9.43
2022-10-29T18:15:36.736Z,5.03
2022-10-29T18:18:06.730Z,3.55
2022-10-29T18:20:36.560Z,3.45
2022-10-29T18:23:06.373Z,3.22
2022-10-29T18:25:36.198Z,3.63
2022-10-29T18:28:08.716Z,3.88
2022-10-29T18:30:38.561Z,3.83
2022-10-29T18:33:08.536Z,4.32
2022-10-29T18:35:38.450Z,3.60
2022-10-29T18:38:08.338Z,3.90
2022-10-29T18:40:38.238Z,3.63
2022-10-29T18:43:10.653Z,3.47
2022-10-29T18:45:40.515Z,4.47
2022-10-29T18:48:10.517Z,4.25
2022-10-29T18:50:40.393Z,3.55
2022-10-29T18:53:10.255Z,3.72
2022-10-29T18:55:40.137Z,4.70
2022-10-29T18:58:12.604Z,3.10
2022-10-29T19:00:42.512Z,3.75
2022-10-29T19:03:13.193Z,3.80
2022-10-29T19:05:43.309Z,4.30
2022-10-29T19:08:15.266Z,5.63
2022-10-29T19:10:45.963Z,8.25
2022-10-29T19:13:18.382Z,4.38
2022-10-29T19:15:48.246Z,4.95
2022-10-29T19:18:18.072Z,4.30
2022-10-29T19:20:48.046Z,4.28
2022-10-29T19:23:17.917Z,4.65
2022-10-29T19:25:47.784Z,3.67
2022-10-29T19:28:20.230Z,3.90
2022-10-29T19:30:50.125Z,5.38
2022-10-29T19:33:19.952Z,4.95
2022-10-29T19:35:49.788Z,3.50
2022-10-29T19:38:19.624Z,2.70
2022-10-29T19:40:49.459Z,3.30
2022-10-29T19:43:22.356Z,3.28
2022-10-29T19:45:52.346Z,3.42
2022-10-29T19:48:22.295Z,3.58
2022-10-29T19:50:55.238Z,4.05
2022-10-29T19:53:26.332Z,2.97
2022-10-29T19:55:56.828Z,2.70
2022-10-29T19:58:31.551Z,3.95
2022-10-29T20:01:06.698Z,3.13
2022-10-29T20:03:36.614Z,4.32
2022-10-29T20:06:06.744Z,3.33
2022-10-29T20:08:36.617Z,3.70
2022-10-29T20:11:06.679Z,3.60
2022-10-29T20:13:40.223Z,3.30
2022-10-29T20:16:11.789Z,3.20
2022-10-29T20:18:41.639Z,3.78
2022-10-29T20:21:11.775Z,3.35
2022-10-29T20:23:41.593Z,4.10
2022-10-29T20:26:11.723Z,3.55
2022-10-29T20:28:44.242Z,4.47
2022-10-29T20:31:16.122Z,4.00
2022-10-29T20:33:46.115Z,4.70
2022-10-29T20:36:16.019Z,4.63
2022-10-29T20:38:45.917Z,5.10
2022-10-29T20:41:15.755Z,5.32
2022-10-29T20:43:48.306Z,5.05
2022-10-29T20:46:18.156Z,4.97
2022-10-29T20:48:48.003Z,5.15
2022-10-29T20:51:17.942Z,5.20
2022-10-29T20:53:47.823Z,4.55
2022-10-29T20:56:17.673Z,5.47
2022-10-29T20:58:50.142Z,4.63
2022-10-29T21:01:21.760Z,4.40
2022-10-29T21:03:52.690Z,4.75
2022-10-29T21:06:22.892Z,4.80
2022-10-29T21:08:54.018Z,4.60
2022-10-29T21:11:24.899Z,5.22
2022-10-29T21:13:57.361Z,5.25
2022-10-29T21:16:28.558Z,4.82
2022-10-29T21:19:00.331Z,5.60
2022-10-29T21:21:31.442Z,5.70
2022-10-29T21:24:01.610Z,6.05
2022-10-29T21:26:31.712Z,6.18
2022-10-29T21:29:04.342Z,6.60
2022-10-29T21:31:34.213Z,5.93
2022-10-29T21:34:04.164Z,7.20
2022-10-29T21:36:33.998Z,6.22
2022-10-29T21:39:03.833Z,6.45
2022-10-29T21:41:33.710Z,5.95
2022-10-29T21:44:10.750Z,6.57
2022-10-29T21:46:40.616Z,6.00
2022-10-29T21:49:10.412Z,6.82
2022-10-29T21:51:40.253Z,6.03
2022-10-29T21:54:10.082Z,6.53
2022-10-29T21:56:39.907Z,6.20
2022-10-29T21:59:12.480Z,8.23
2022-10-29T22:01:42.433Z,7.13
2022-10-29T22:04:12.382Z,7.13
2022-10-29T22:06:42.216Z,6.72
2022-10-29T22:09:12.754Z,7.20
2022-10-29T22:11:42.617Z,8.13
2022-10-29T22:14:15.048Z,7.90
2022-10-29T22:16:44.905Z,7.75
2022-10-29T22:19:14.716Z,8.00
2022-10-29T22:21:46.376Z,7.75
2022-10-29T22:24:16.389Z,6.47
2022-10-29T22:26:46.218Z,6.35
2022-10-29T22:29:18.691Z,6.13
2022-10-29T22:31:48.612Z,7.10
2022-10-29T22:34:18.444Z,6.65
2022-10-29T22:36:48.268Z,6.85
2022-10-29T22:39:18.093Z,6.28
2022-10-29T22:41:47.982Z,6.88
2022-10-29T22:44:20.562Z,6.28
2022-10-29T22:46:50.404Z,6.18
2022-10-29T22:49:20.236Z,6.78
2022-10-29T22:51:50.418Z,6.32
2022-10-29T22:54:20.557Z,6.63
2022-10-29T22:56:50.440Z,6.38
2022-10-29T22:59:22.932Z,7.07
2022-10-29T23:01:52.890Z,6.85
2022-10-29T23:04:22.801Z,7.32
2022-10-29T23:06:52.669Z,7.03
2022-10-29T23:09:22.577Z,7.10
2022-10-29T23:11:52.403Z,7.05
2022-10-29T23:14:24.946Z,6.53
2022-10-29T23:16:55.157Z,7.05
2022-10-29T23:19:24.967Z,7.03
2022-10-29T23:21:54.919Z,7.47
2022-10-29T23:24:24.740Z,6.57
2022-10-29T23:26:54.547Z,6.65
2022-10-29T23:29:27.118Z,7.28
2022-10-29T23:31:56.949Z,7.75
2022-10-29T23:34:26.803Z,7.00
2022-10-29T23:36:57.836Z,7.20
2022-10-29T23:39:27.782Z,6.40
2022-10-29T23:41:57.662Z,6.47
2022-10-29T23:44:30.152Z,7.47
2022-10-29T23:46:59.983Z,7.63
2022-10-29T23:49:29.856Z,7.40
2022-10-29T23:51:59.700Z,9.93
2022-10-29T23:54:29.529Z,9.05
2022-10-29T23:56:59.404Z,9.18
2022-10-29T23:59:31.851Z,7.57
